createdAt,value
2017-08-01T00:01:34.195Z,100226.48
2017-08-01T00:04:03.292Z,100197.65
2017-08-01T00:06:32.339Z,100176.90
2017-08-01T00:09:01.392Z,100150.64
2017-08-01T00:11:31.220Z,100139.58
2017-08-01T00:14:00.287Z,100130.70
2017-08-01T00:16:29.323Z,100125.39
2017-08-01T00:18:58.387Z,100130.92
2017-08-01T00:21:28.208Z,100104.47
2017-08-01T00:23:58.044Z,100051.16
2017-08-01T00:26:27.104Z,100044.45
2017-08-01T00:28:56.160Z,100055.31
2017-08-01T00:31:25.277Z,100047.02
2017-08-01T00:33:54.328Z,100040.30
2017-08-01T00:36:23.390Z,100040.30
2017-08-01T00:38:53.210Z,100037.53
2017-08-01T00:41:22.285Z,100060.02
2017-08-01T00:43:51.318Z,100057.47
2017-08-01T00:46:20.389Z,100041.09
2017-08-01T00:48:50.247Z,100067.69
2017-08-01T00:51:19.316Z,100093.80
2017-08-01T00:53:48.428Z,100105.34
2017-08-01T00:56:17.463Z,100105.00
2017-08-01T00:58:46.525Z,100119.02
2017-08-01T01:01:15.616Z,100130.14
2017-08-01T01:03:44.685Z,100143.58
2017-08-01T01:06:14.507Z,100163.48
2017-08-01T01:08:43.570Z,100161.53
2017-08-01T01:11:12.777Z,100146.55
2017-08-01T01:13:41.795Z,100144.97
2017-08-01T01:16:10.908Z,100148.52
2017-08-01T01:18:40.215Z,100154.07
2017-08-01T01:21:09.279Z,100159.96
2017-08-01T01:23:38.331Z,100173.37
2017-08-01T01:26:07.400Z,100178.09
2017-08-01T01:28:36.452Z,100182.64
2017-08-01T01:31:05.495Z,100188.12
2017-08-01T01:33:34.536Z,100188.75
2017-08-01T01:36:04.381Z,100187.14
2017-08-01T01:38:33.435Z,100194.80
2017-08-01T01:41:03.267Z,100198.77
2017-08-01T01:43:32.332Z,100205.45
2017-08-01T01:46:01.406Z,100204.89
2017-08-01T01:48:30.441Z,100202.09
2017-08-01T01:51:00.276Z,100203.67
2017-08-01T01:53:29.341Z,100200.28
2017-08-01T01:55:59.159Z,100192.41
2017-08-01T01:58:28.993Z,100195.95
2017-08-01T02:00:58.103Z,100202.85
2017-08-01T02:03:27.139Z,100210.77
2017-08-01T02:05:56.236Z,100195.59
2017-08-01T02:08:25.300Z,100189.48
2017-08-01T02:10:54.364Z,100184.75
2017-08-01T02:13:23.421Z,100198.55
2017-08-01T02:15:52.502Z,100202.06
2017-08-01T02:18:21.539Z,100200.68
2017-08-01T02:20:50.629Z,100195.59
2017-08-01T02:23:20.432Z,100198.71
2017-08-01T02:25:50.264Z,100192.59
2017-08-01T02:28:19.341Z,100181.95
2017-08-01T02:30:49.165Z,100181.79
2017-08-01T02:33:18.223Z,100178.05
2017-08-01T02:35:47.267Z,100191.88
2017-08-01T02:38:16.556Z,100198.34
2017-08-01T02:40:45.661Z,100195.20
2017-08-01T02:43:14.896Z,100203.87
2017-08-01T02:45:43.952Z,100198.52
2017-08-01T02:48:13.396Z,100177.95
2017-08-01T02:50:42.472Z,100175.39
2017-08-01T02:53:11.522Z,100165.34
2017-08-01T02:55:40.588Z,100161.39
2017-08-01T02:58:09.667Z,100151.31
2017-08-01T03:00:38.704Z,100146.19
2017-08-01T03:03:07.804Z,100161.95
2017-08-01T03:05:37.076Z,100159.39
2017-08-01T03:08:06.119Z,100168.27
2017-08-01T03:10:35.188Z,100163.14
2017-08-01T03:13:04.308Z,100159.98
2017-08-01T03:15:33.359Z,100163.33
2017-08-01T03:18:02.395Z,100150.69
2017-08-01T03:20:31.484Z,100142.61
2017-08-01T03:23:00.531Z,100140.87
2017-08-01T03:25:29.619Z,100146.38
2017-08-01T03:27:58.682Z,100143.03
2017-08-01T03:30:27.871Z,100130.23
2017-08-01T03:32:56.924Z,100125.70
2017-08-01T03:35:25.978Z,100137.71
2017-08-01T03:37:55.048Z,100137.68
2017-08-01T03:40:24.140Z,100146.55
2017-08-01T03:42:53.171Z,100144.58
2017-08-01T03:45:22.240Z,100150.69
2017-08-01T03:47:51.308Z,100159.16
2017-08-01T03:50:20.372Z,100154.63
2017-08-01T03:52:49.418Z,100154.23
2017-08-01T03:55:18.492Z,100155.02
2017-08-01T03:57:47.562Z,100152.89
2017-08-01T04:00:16.617Z,100149.50
2017-08-01T04:02:45.676Z,100154.03
2017-08-01T04:05:14.711Z,100157.62
2017-08-01T04:07:43.835Z,100161.16
2017-08-01T04:10:12.923Z,100166.69
2017-08-01T04:12:41.968Z,100160.38
2017-08-01T04:15:11.148Z,100142.45
2017-08-01T04:17:40.197Z,100139.29
2017-08-01T04:20:09.266Z,100133.02
2017-08-01T04:22:38.319Z,100132.06
2017-08-01T04:25:07.378Z,100130.84
2017-08-01T04:27:36.525Z,100123.55
2017-08-01T04:30:05.605Z,100124.94
2017-08-01T04:32:34.699Z,100132.63
2017-08-01T04:35:03.762Z,100150.16
2017-08-01T04:37:32.880Z,100162.34
2017-08-01T04:40:01.927Z,100160.97
2017-08-01T04:42:31.011Z,100148.95
2017-08-01T04:45:05.531Z,100147.37
2017-08-01T04:47:34.595Z,100146.78
2017-08-01T04:50:03.691Z,100141.30
2017-08-01T04:52:32.717Z,100145.69
2017-08-01T04:55:01.775Z,100145.09
2017-08-01T04:57:30.817Z,100143.74
2017-08-01T04:59:59.887Z,100144.95
2017-08-01T05:02:28.928Z,100154.41
2017-08-01T05:04:57.980Z,100153.63
2017-08-01T05:07:27.039Z,100152.25
2017-08-01T05:09:56.095Z,100150.47
2017-08-01T05:12:25.179Z,100152.81
2017-08-01T05:14:54.223Z,100168.48
2017-08-01T05:17:23.336Z,100175.45
2017-08-01T05:19:52.396Z,100180.64
2017-08-01T05:22:21.547Z,100190.30
2017-08-01T05:24:50.604Z,100191.91
2017-08-01T05:27:19.662Z,100208.10
2017-08-01T05:29:48.750Z,100221.51
2017-08-01T05:32:17.825Z,100225.45
2017-08-01T05:34:46.868Z,100220.35
2017-08-01T05:37:16.075Z,100213.65
2017-08-01T05:39:45.100Z,100199.25
2017-08-01T05:42:14.147Z,100198.91
2017-08-01T05:44:43.206Z,100189.05
2017-08-01T05:47:12.301Z,100194.59
2017-08-01T05:49:41.364Z,100201.53
2017-08-01T05:52:10.433Z,100204.33
2017-08-01T05:54:39.499Z,100197.45
2017-08-01T05:57:08.572Z,100197.84
2017-08-01T05:59:37.671Z,100187.19
2017-08-01T06:02:06.735Z,100181.67
2017-08-01T06:04:35.791Z,100192.31
2017-08-01T06:07:05.074Z,100190.33
2017-08-01T06:09:34.205Z,100197.64
2017-08-01T06:12:03.376Z,100204.17
2017-08-01T06:14:32.434Z,100199.21
2017-08-01T06:17:01.477Z,100193.50
2017-08-01T06:19:30.516Z,100191.89
2017-08-01T06:21:59.639Z,100194.42
2017-08-01T06:24:28.684Z,100204.47
2017-08-01T06:26:57.735Z,100218.43
2017-08-01T06:29:26.811Z,100221.16
2017-08-01T06:31:55.855Z,100219.94
2017-08-01T06:34:25.144Z,100237.93
2017-08-01T06:36:54.203Z,100249.20
2017-08-01T06:39:23.268Z,100262.22
2017-08-01T06:41:52.348Z,100258.84
2017-08-01T06:44:21.463Z,100267.34
2017-08-01T06:46:50.520Z,100266.75
2017-08-01T06:49:19.587Z,100273.88
2017-08-01T06:51:48.756Z,100270.87
2017-08-01T06:54:17.804Z,100273.23
2017-08-01T06:56:46.876Z,100276.00
2017-08-01T06:59:15.928Z,100272.80
2017-08-01T07:01:45.195Z,100264.64
2017-08-01T07:04:14.288Z,100263.41
2017-08-01T07:06:43.308Z,100273.45
2017-08-01T07:09:12.366Z,100286.53
2017-08-01T07:11:41.408Z,100302.56
2017-08-01T07:14:10.481Z,100315.61
2017-08-01T07:16:39.548Z,100319.58
2017-08-01T07:19:08.591Z,100322.13
2017-08-01T07:21:37.662Z,100317.74
2017-08-01T07:24:06.732Z,100309.97
2017-08-01T07:26:35.810Z,100306.56
2017-08-01T07:29:04.892Z,100318.59
2017-08-01T07:31:33.916Z,100318.37
2017-08-01T07:34:03.014Z,100309.66
2017-08-01T07:36:32.060Z,100308.88
2017-08-01T07:39:01.115Z,100309.87
2017-08-01T07:41:30.167Z,100315.98
2017-08-01T07:43:59.248Z,100311.83
2017-08-01T07:46:28.360Z,100304.51
2017-08-01T07:48:57.386Z,100301.33
2017-08-01T07:51:26.458Z,100302.81
2017-08-01T07:53:55.519Z,100305.56
2017-08-01T07:56:24.584Z,100298.41
2017-08-01T07:58:53.628Z,100297.94
2017-08-01T08:01:22.700Z,100284.17
2017-08-01T08:03:51.791Z,100282.23
2017-08-01T08:06:20.852Z,100271.95
2017-08-01T08:08:49.940Z,100267.56
2017-08-01T08:11:18.995Z,100263.26
2017-08-01T08:13:48.051Z,100269.52
2017-08-01T08:16:17.126Z,100271.26
2017-08-01T08:18:46.169Z,100276.64
2017-08-01T08:21:15.232Z,100268.41
2017-08-01T08:23:44.323Z,100272.19
2017-08-01T08:26:13.391Z,100280.08
2017-08-01T08:28:42.437Z,100285.63
2017-08-01T08:31:11.545Z,100297.97
2017-08-01T08:33:40.586Z,100304.63
2017-08-01T08:36:09.627Z,100310.61
2017-08-01T08:38:38.700Z,100317.19
2017-08-01T08:41:07.807Z,100321.37
2017-08-01T08:43:36.943Z,100331.85
2017-08-01T08:46:06.035Z,100338.73
2017-08-01T08:48:35.077Z,100340.72
2017-08-01T08:51:04.167Z,100361.73
2017-08-01T08:53:33.199Z,100364.28
2017-08-01T08:56:02.293Z,100377.56
2017-08-01T08:58:31.356Z,100388.36
2017-08-01T09:01:00.407Z,100393.52
2017-08-01T09:03:29.453Z,100395.20
2017-08-01T09:05:58.524Z,100396.69
2017-08-01T09:08:27.631Z,100392.82
2017-08-01T09:10:56.987Z,100400.58
2017-08-01T09:13:26.040Z,100404.15
2017-08-01T09:15:55.102Z,100388.91
2017-08-01T09:18:24.148Z,100375.45
2017-08-01T09:20:53.215Z,100345.57
2017-08-01T09:23:22.320Z,100259.61
2017-08-01T09:25:51.361Z,100180.87
2017-08-01T09:28:20.440Z,100176.98
2017-08-01T09:30:49.500Z,100179.36
2017-08-01T09:33:18.550Z,100202.45
2017-08-01T09:35:47.624Z,100210.94
2017-08-01T09:38:16.668Z,100215.45
2017-08-01T09:40:45.760Z,100245.95
2017-08-01T09:43:14.822Z,100262.81
2017-08-01T09:45:43.877Z,100273.91
2017-08-01T09:48:12.997Z,100280.64
2017-08-01T09:50:42.099Z,100285.44
2017-08-01T09:53:11.186Z,100277.49
2017-08-01T09:55:40.486Z,100265.80
2017-08-01T09:58:09.696Z,100241.61
2017-08-01T10:00:38.744Z,100207.27
2017-08-01T10:03:07.820Z,100219.89
2017-08-01T10:05:36.876Z,100268.12
2017-08-01T10:08:05.976Z,100312.83
2017-08-01T10:10:35.043Z,100329.28
2017-08-01T10:13:04.121Z,100333.20
2017-08-01T10:15:33.168Z,100313.06
2017-08-01T10:18:02.253Z,100298.49
2017-08-01T10:20:31.319Z,100290.04
2017-08-01T10:23:00.460Z,100288.67
2017-08-01T10:25:29.515Z,100303.47
2017-08-01T10:27:58.599Z,100293.20
2017-08-01T10:30:27.664Z,100283.92
2017-08-01T10:32:56.722Z,100281.91
2017-08-01T10:35:25.800Z,100294.05
2017-08-01T10:37:54.863Z,100309.83
2017-08-01T10:40:24.042Z,100330.64
2017-08-01T10:42:53.104Z,100338.69
2017-08-01T10:45:22.152Z,100343.25
2017-08-01T10:47:51.239Z,100353.47
2017-08-01T10:50:20.284Z,100352.98
2017-08-01T10:52:49.347Z,100356.05
2017-08-01T10:55:18.457Z,100359.09
2017-08-01T10:57:47.519Z,100361.15
2017-08-01T11:00:16.590Z,100360.66
2017-08-01T11:02:45.856Z,100373.61
2017-08-01T11:05:14.938Z,100366.29
2017-08-01T11:07:43.994Z,100367.38
2017-08-01T11:10:13.056Z,100355.47
2017-08-01T11:12:42.132Z,100370.98
2017-08-01T11:15:11.200Z,100369.61
2017-08-01T11:17:40.279Z,100376.66
2017-08-01T11:20:09.410Z,100381.73
2017-08-01T11:22:38.453Z,100377.11
2017-08-01T11:25:07.542Z,100376.75
2017-08-01T11:27:36.612Z,100376.26
2017-08-01T11:30:05.699Z,100385.61
2017-08-01T11:32:34.755Z,100384.64
2017-08-01T11:35:03.823Z,100386.79
2017-08-01T11:37:32.880Z,100390.66
2017-08-01T11:40:01.927Z,100401.75
2017-08-01T11:42:30.974Z,100410.13
2017-08-01T11:45:00.061Z,100424.64
2017-08-01T11:47:29.118Z,100423.48
2017-08-01T11:49:58.185Z,100423.52
2017-08-01T11:52:27.278Z,100413.08
2017-08-01T11:54:56.318Z,100408.77
2017-08-01T11:57:25.376Z,100399.91
2017-08-01T11:59:54.480Z,100386.01
2017-08-01T12:02:23.527Z,100390.23
2017-08-01T12:04:52.593Z,100403.37
2017-08-01T12:07:21.685Z,100404.75
2017-08-01T12:09:50.745Z,100403.39
2017-08-01T12:12:19.857Z,100397.91
2017-08-01T12:14:48.901Z,100399.53
2017-08-01T12:17:18.014Z,100401.03
2017-08-01T12:19:47.088Z,100410.97
2017-08-01T12:22:16.176Z,100398.67
2017-08-01T12:24:46.531Z,100396.80
2017-08-01T12:27:15.668Z,100399.41
2017-08-01T12:29:44.711Z,100394.45
2017-08-01T12:32:13.844Z,100388.94
2017-08-01T12:34:42.960Z,100378.36
2017-08-01T12:37:12.021Z,100366.91
2017-08-01T12:39:41.079Z,100366.30
2017-08-01T12:42:10.156Z,100356.13
2017-08-01T12:44:39.279Z,100350.40
2017-08-01T12:47:08.359Z,100343.27
2017-08-01T12:49:37.419Z,100331.83
2017-08-01T12:52:06.479Z,100322.34
2017-08-01T12:54:35.567Z,100321.70
2017-08-01T12:57:04.907Z,100323.63
2017-08-01T12:59:34.288Z,100333.27
2017-08-01T13:02:03.408Z,100344.28
2017-08-01T13:04:32.436Z,100360.08
2017-08-01T13:07:01.520Z,100362.02
2017-08-01T13:09:30.561Z,100379.15
2017-08-01T13:11:59.634Z,100381.37
2017-08-01T13:14:28.724Z,100384.46
2017-08-01T13:16:57.796Z,100395.17
2017-08-01T13:19:26.832Z,100402.59
2017-08-01T13:21:55.920Z,100405.31
2017-08-01T13:24:24.970Z,100405.06
2017-08-01T13:26:54.034Z,100396.19
2017-08-01T13:29:23.100Z,100375.84
2017-08-01T13:31:52.183Z,100377.88
2017-08-01T13:34:21.252Z,100376.93
2017-08-01T13:36:50.295Z,100379.66
2017-08-01T13:39:19.372Z,100391.63
2017-08-01T13:41:48.613Z,100392.39
2017-08-01T13:44:17.683Z,100393.80
2017-08-01T13:46:46.764Z,100395.34
2017-08-01T13:49:15.808Z,100390.26
2017-08-01T13:51:44.897Z,100391.44
2017-08-01T13:54:13.963Z,100380.70
2017-08-01T13:56:43.004Z,100380.03
2017-08-01T13:59:12.079Z,100371.67
2017-08-01T14:01:41.174Z,100370.59
2017-08-01T14:04:10.300Z,100375.80
2017-08-01T14:06:39.340Z,100377.55
2017-08-01T14:09:08.425Z,100375.97
2017-08-01T14:11:37.467Z,100388.63
2017-08-01T14:14:06.515Z,100404.46
2017-08-01T14:16:35.604Z,100403.24
2017-08-01T14:19:04.708Z,100402.63
2017-08-01T14:21:33.752Z,100412.74
2017-08-01T14:24:02.827Z,100416.89
2017-08-01T14:26:31.883Z,100419.09
2017-08-01T14:29:00.944Z,100423.10
2017-08-01T14:31:30.035Z,100425.67
2017-08-01T14:33:59.079Z,100425.11
2017-08-01T14:36:28.172Z,100408.59
2017-08-01T14:38:57.211Z,100412.89
2017-08-01T14:41:26.280Z,100404.34
2017-08-01T14:43:55.356Z,100404.13
2017-08-01T14:46:24.427Z,100409.48
2017-08-01T14:48:53.502Z,100407.13
2017-08-01T14:51:22.544Z,100395.23
2017-08-01T14:53:51.604Z,100393.19
2017-08-01T14:56:20.648Z,100390.11
2017-08-01T14:58:49.724Z,100389.91
2017-08-01T15:01:18.794Z,100389.23
2017-08-01T15:03:47.877Z,100380.48
2017-08-01T15:06:16.937Z,100383.61
2017-08-01T15:08:45.982Z,100388.33
2017-08-01T15:11:15.065Z,100392.02
2017-08-01T15:13:44.143Z,100397.56
2017-08-01T15:16:13.195Z,100396.27
2017-08-01T15:18:42.560Z,100393.78
2017-08-01T15:21:11.647Z,100388.83
2017-08-01T15:23:40.715Z,100397.49
2017-08-01T15:26:09.791Z,100398.55
2017-08-01T15:28:38.836Z,100390.04
2017-08-01T15:31:07.908Z,100388.02
2017-08-01T15:33:36.972Z,100382.11
2017-08-01T15:36:06.021Z,100379.45
2017-08-01T15:38:35.113Z,100381.91
2017-08-01T15:41:04.179Z,100375.09
2017-08-01T15:43:33.255Z,100367.41
2017-08-01T15:46:02.316Z,100372.20
2017-08-01T15:48:31.380Z,100380.84
2017-08-01T15:51:00.473Z,100377.55
2017-08-01T15:53:29.535Z,100376.44
2017-08-01T15:55:58.613Z,100380.28
2017-08-01T15:58:27.684Z,100388.25
2017-08-01T16:00:56.739Z,100383.77
2017-08-01T16:03:25.839Z,100380.60
2017-08-01T16:05:54.906Z,100366.37
2017-08-01T16:08:23.964Z,100367.16
2017-08-01T16:10:53.010Z,100369.23
2017-08-01T16:13:22.076Z,100352.22
2017-08-01T16:15:51.147Z,100359.37
2017-08-01T16:18:20.212Z,100358.98
2017-08-01T16:20:49.286Z,100357.73
2017-08-01T16:23:18.332Z,100354.19
2017-08-01T16:25:47.387Z,100348.41
2017-08-01T16:28:16.484Z,100348.41
2017-08-01T16:30:45.534Z,100353.78
2017-08-01T16:33:14.612Z,100366.66
2017-08-01T16:35:43.660Z,100371.63
2017-08-01T16:38:12.724Z,100374.02
2017-08-01T16:40:41.820Z,100372.31
2017-08-01T16:43:10.881Z,100368.41
2017-08-01T16:45:39.975Z,100364.69
2017-08-01T16:48:09.039Z,100366.73
2017-08-01T16:50:38.119Z,100373.55
2017-08-01T16:53:07.216Z,100369.23
2017-08-01T16:55:36.284Z,100375.40
2017-08-01T16:58:05.386Z,100375.21
2017-08-01T17:00:34.460Z,100392.28
2017-08-01T17:03:03.586Z,100391.29
2017-08-01T17:05:32.656Z,100403.19
2017-08-01T17:08:01.752Z,100408.34
2017-08-01T17:10:30.820Z,100403.44
2017-08-01T17:12:59.928Z,100405.41
2017-08-01T17:15:29.019Z,100414.91
2017-08-01T17:17:58.090Z,100413.11
2017-08-01T17:20:27.187Z,100415.67
2017-08-01T17:22:56.213Z,100411.13
2017-08-01T17:25:25.410Z,100405.83
2017-08-01T17:27:54.484Z,100402.84
2017-08-01T17:30:23.591Z,100403.65
2017-08-01T17:32:52.656Z,100397.47
2017-08-01T17:35:21.759Z,100404.20
2017-08-01T17:37:51.263Z,100404.64
2017-08-01T17:40:20.312Z,100404.06
2017-08-01T17:42:49.364Z,100409.80
2017-08-01T17:45:18.453Z,100402.29
2017-08-01T17:47:47.512Z,100395.77
2017-08-01T17:50:16.596Z,100388.65
2017-08-01T17:52:45.657Z,100389.45
2017-08-01T17:55:14.748Z,100385.30
2017-08-01T17:57:43.891Z,100388.67
2017-08-01T18:00:13.033Z,100382.35
2017-08-01T18:02:42.185Z,100375.83
2017-08-01T18:05:11.269Z,100381.57
2017-08-01T18:07:40.312Z,100392.30
2017-08-01T18:10:09.405Z,100390.14
2017-08-01T18:12:38.487Z,100389.94
2017-08-01T18:15:07.566Z,100394.48
2017-08-01T18:17:36.690Z,100394.30
2017-08-01T18:20:05.909Z,100390.75
2017-08-01T18:22:35.847Z,100398.26
2017-08-01T18:25:04.908Z,100404.39
2017-08-01T18:27:34.015Z,100400.44
2017-08-01T18:30:03.135Z,100397.08
2017-08-01T18:32:32.226Z,100399.06
2017-08-01T18:35:01.296Z,100411.91
2017-08-01T18:37:30.376Z,100428.52
2017-08-01T18:39:59.692Z,100436.60
2017-08-01T18:42:28.797Z,100440.37
2017-08-01T18:44:57.876Z,100444.92
2017-08-01T18:47:27.191Z,100449.67
2017-08-01T18:49:56.485Z,100456.38
2017-08-01T18:52:25.561Z,100462.88
2017-08-01T18:54:54.645Z,100467.03
2017-08-01T18:57:24.029Z,100466.05
2017-08-01T18:59:53.443Z,100470.98
2017-08-01T19:02:22.533Z,100479.46
2017-08-01T19:04:51.678Z,100485.78
2017-08-01T19:07:20.748Z,100485.34
2017-08-01T19:09:49.839Z,100493.81
2017-08-01T19:12:19.036Z,100502.48
2017-08-01T19:14:48.415Z,100504.48
2017-08-01T19:17:17.779Z,100503.69
2017-08-01T19:19:46.870Z,100512.78
2017-08-01T19:22:16.266Z,100511.37
2017-08-01T19:24:45.613Z,100519.50
2017-08-01T19:27:14.697Z,100524.05
2017-08-01T19:29:43.765Z,100527.73
2017-08-01T19:32:12.956Z,100535.20
2017-08-01T19:34:42.366Z,100538.17
2017-08-01T19:37:11.764Z,100545.91
2017-08-01T19:39:40.929Z,100559.30
2017-08-01T19:42:10.308Z,100554.69
2017-08-01T19:44:39.726Z,100555.55
2017-08-01T19:47:08.870Z,100551.20
2017-08-01T19:49:38.259Z,100551.95
2017-08-01T19:52:07.625Z,100564.00
2017-08-01T19:54:36.795Z,100563.57
2017-08-01T19:57:05.945Z,100564.36
2017-08-01T19:59:35.020Z,100557.88
2017-08-01T20:02:04.496Z,100570.25
2017-08-01T20:04:33.804Z,100567.48
2017-08-01T20:07:03.265Z,100574.23
2017-08-01T20:09:32.603Z,100579.76
2017-08-01T20:12:01.707Z,100577.39
2017-08-01T20:14:31.103Z,100569.45
2017-08-01T20:17:00.472Z,100564.46
2017-08-01T20:19:29.549Z,100564.66
2017-08-01T20:21:58.684Z,100574.77
2017-08-01T20:24:27.903Z,100573.16
2017-08-01T20:26:57.185Z,100568.02
2017-08-01T20:29:26.331Z,100572.76
2017-08-01T20:31:55.446Z,100573.55
2017-08-01T20:34:24.533Z,100576.31
2017-08-01T20:36:53.620Z,100568.81
2017-08-01T20:39:22.681Z,100568.20
2017-08-01T20:41:51.763Z,100566.19
2017-08-01T20:44:20.855Z,100567.34
2017-08-01T20:46:49.949Z,100575.42
2017-08-01T20:49:19.014Z,100575.47
2017-08-01T20:51:48.073Z,100579.82
2017-08-01T20:54:17.182Z,100586.36
2017-08-01T20:56:46.307Z,100584.56
2017-08-01T20:59:16.281Z,100577.53
2017-08-01T21:01:46.117Z,100576.60
2017-08-01T21:04:15.188Z,100562.02
2017-08-01T21:06:45.107Z,100564.38
2017-08-01T21:09:14.162Z,100561.02
2017-08-01T21:11:43.611Z,100567.09
2017-08-01T21:14:13.454Z,100561.55
2017-08-01T21:16:44.277Z,100558.98
2017-08-01T21:19:14.184Z,100549.27
2017-08-01T21:21:44.189Z,100552.27
2017-08-01T21:24:13.247Z,100544.59
2017-08-01T21:26:42.388Z,100545.02
2017-08-01T21:29:12.283Z,100549.13
2017-08-01T21:31:41.341Z,100556.80
2017-08-01T21:34:10.445Z,100557.59
2017-08-01T21:36:39.497Z,100550.45
2017-08-01T21:39:08.589Z,100554.14
2017-08-01T21:41:37.631Z,100547.61
2017-08-01T21:44:06.711Z,100546.13
2017-08-01T21:46:35.771Z,100549.59
2017-08-01T21:49:05.619Z,100553.53
2017-08-01T21:51:34.716Z,100558.08
2017-08-01T21:54:03.816Z,100557.09
2017-08-01T21:56:33.097Z,100565.30
2017-08-01T21:59:02.184Z,100559.70
2017-08-01T22:01:32.000Z,100565.94
2017-08-01T22:04:01.059Z,100564.75
2017-08-01T22:06:30.927Z,100564.16
2017-08-01T22:08:59.992Z,100570.39
2017-08-01T22:11:29.051Z,100571.08
2017-08-01T22:13:58.204Z,100562.86
2017-08-01T22:16:27.284Z,100569.27
2017-08-01T22:18:56.375Z,100573.38
2017-08-01T22:21:27.071Z,100580.42
2017-08-01T22:23:56.248Z,100580.79
2017-08-01T22:26:25.297Z,100579.59
2017-08-01T22:28:54.343Z,100589.27
2017-08-01T22:31:23.426Z,100585.73
2017-08-01T22:33:52.495Z,100588.11
2017-08-01T22:36:21.615Z,100590.91
2017-08-01T22:38:50.697Z,100589.16
2017-08-01T22:41:19.752Z,100591.00
2017-08-01T22:43:48.842Z,100597.12
2017-08-01T22:46:17.899Z,100586.86
2017-08-01T22:48:46.982Z,100577.55
2017-08-01T22:51:16.095Z,100574.17
2017-08-01T22:53:45.185Z,100578.69
2017-08-01T22:56:14.273Z,100586.52
2017-08-01T22:58:43.340Z,100586.52
2017-08-01T23:01:12.452Z,100592.04
2017-08-01T23:03:41.519Z,100596.35
2017-08-01T23:06:10.587Z,100599.30
2017-08-01T23:08:40.671Z,100603.58
2017-08-01T23:11:09.746Z,100610.65
2017-08-01T23:13:38.820Z,100605.72
2017-08-01T23:16:07.878Z,100610.63
2017-08-01T23:18:36.929Z,100606.48
2017-08-01T23:21:06.020Z,100609.23
2017-08-01T23:23:35.082Z,100615.55
2017-08-01T23:26:04.168Z,100616.92
2017-08-01T23:28:33.218Z,100615.67
2017-08-01T23:31:02.328Z,100605.98
2017-08-01T23:33:31.353Z,100605.91
2017-08-01T23:36:00.432Z,100609.58
2017-08-01T23:38:29.511Z,100614.88
2017-08-01T23:40:58.573Z,100617.63
2017-08-01T23:43:27.632Z,100614.84
2017-08-01T23:45:56.691Z,100615.98
2017-08-01T23:48:25.780Z,100613.77
2017-08-01T23:50:54.825Z,100616.52
2017-08-01T23:53:23.891Z,100609.58
2017-08-01T23:55:52.992Z,100611.31
2017-08-01T23:58:22.047Z,100607.75
